Time;durP1;ratioP1;P1;durP2;ratioP2;P2;SDS_P1;SDS_P2;PMS_P1;PMS_P2;Temp;Humidity;BMP_temperature;BMP_pressure;BME280_temperature;BME280_humidity;BME280_pressure;Samples;Min_cycle;Max_cycle;Signal;HPM_P1;HPM_P2
2022/12/06 00:01:18;;;;;;;3.30;1.80;;;22.40;58.50;;;;;;5048145;28;20192;-68
2022/12/06 00:03:50;;;;;;;5.43;2.50;;;22.60;57.80;;;;;;5034265;28;20527;-69
2022/12/06 00:06:20;;;;;;;5.97;2.47;;;22.80;57.60;;;;;;5043270;28;20180;-69
2022/12/06 00:08:48;;;;;;;5.17;2.07;;;23.10;57.80;;;;;;5036775;28;20230;-70
2022/12/06 00:11:24;;;;;;;4.80;1.83;;;23.40;55.00;;;;;;5042809;28;20183;-69
2022/12/06 00:13:56;;;;;;;6.47;2.60;;;23.80;54.30;;;;;;5036505;28;20206;-68
2022/12/06 00:16:24;;;;;;;5.50;2.47;;;23.80;55.20;;;;;;5073535;28;20179;-68
2022/12/06 00:18:52;;;;;;;5.43;1.80;;;23.40;56.60;;;;;;5075978;28;20263;-71
2022/12/06 00:21:23;;;;;;;2.03;1.30;;;23.20;54.60;;;;;;5050139;28;20181;-70
2022/12/06 00:23:53;;;;;;;3.00;1.80;;;23.20;53.40;;;;;;5043594;28;20237;-71
2022/12/06 00:26:23;;;;;;;2.50;1.57;;;23.60;53.80;;;;;;5054276;28;20666;-69
2022/12/06 00:28:56;;;;;;;4.17;1.60;;;23.50;50.20;;;;;;5045934;28;20605;-71
2022/12/06 00:31:25;;;;;;;4.10;1.67;;;23.60;51.10;;;;;;5046984;28;20184;-71
2022/12/06 00:33:53;;;;;;;3.20;1.60;;;23.60;50.00;;;;;;5069865;28;20183;-69
2022/12/06 00:36:32;;;;;;;4.37;1.87;;;23.50;51.10;;;;;;5042819;28;20185;-68
2022/12/06 00:39:05;;;;;;;6.93;1.83;;;23.60;51.60;;;;;;5052795;28;20634;-68
2022/12/06 00:41:33;;;;;;;3.50;1.70;;;23.30;52.80;;;;;;5051267;28;20210;-68
2022/12/06 00:44:00;;;;;;;2.80;1.37;;;23.60;53.00;;;;;;5035774;28;20185;-70
2022/12/06 00:46:30;;;;;;;3.73;1.60;;;23.50;51.40;;;;;;5035855;28;20259;-68
2022/12/06 00:48:59;;;;;;;1.30;1.00;;;23.60;50.90;;;;;;5047347;28;20231;-69
2022/12/06 00:51:30;;;;;;;3.03;1.33;;;23.80;49.40;;;;;;5061992;28;20270;-69
2022/12/06 00:53:57;;;;;;;5.57;1.40;;;24.00;51.10;;;;;;5035849;28;20181;-68
2022/12/06 00:56:26;;;;;;;2.23;1.13;;;23.70;52.20;;;;;;5037294;28;20224;-69
2022/12/06 00:58:53;;;;;;;4.10;1.90;;;23.40;51.00;;;;;;5045536;28;20188;-69
2022/12/06 01:01:27;;;;;;;4.60;1.40;;;23.20;53.40;;;;;;5056261;28;20267;-69
2022/12/06 01:03:59;;;;;;;7.47;1.90;;;23.00;55.00;;;;;;5035530;28;20202;-68
2022/12/06 01:06:32;;;;;;;5.07;1.90;;;23.50;55.10;;;;;;5039293;28;20195;-71
2022/12/06 01:09:06;;;;;;;5.27;1.50;;;23.80;54.90;;;;;;5035600;28;20187;-69
2022/12/06 01:11:34;;;;;;;4.60;1.70;;;23.70;54.00;;;;;;5046534;28;20214;-68
2022/12/06 01:14:02;;;;;;;4.93;1.70;;;23.80;53.70;;;;;;5054053;28;20195;-68
2022/12/06 01:16:31;;;;;;;7.17;1.97;;;24.20;52.50;;;;;;5050396;28;20188;-69
2022/12/06 01:19:04;;;;;;;4.27;1.97;;;24.40;51.30;;;;;;5056771;28;20185;-68
2022/12/06 01:21:32;;;;;;;3.73;1.60;;;24.70;49.70;;;;;;5053395;28;20566;-68
2022/12/06 01:23:59;;;;;;;5.80;1.50;;;24.70;49.90;;;;;;5051940;28;20235;-70
2022/12/06 01:26:32;;;;;;;2.77;1.50;;;25.10;48.90;;;;;;5052447;28;20188;-67
2022/12/06 01:29:03;;;;;;;8.03;1.93;;;24.70;49.40;;;;;;5054370;28;20179;-68
2022/12/06 01:31:30;;;;;;;7.63;1.90;;;24.90;50.10;;;;;;5050332;28;20642;-67
2022/12/06 01:33:58;;;;;;;4.83;1.77;;;24.90;49.60;;;;;;5054498;28;20183;-68
2022/12/06 01:36:26;;;;;;;6.57;2.03;;;25.20;49.40;;;;;;5050785;28;20180;-67
2022/12/06 01:38:55;;;;;;;2.67;1.50;;;25.10;49.50;;;;;;5050466;28;20634;-68
2022/12/06 01:41:25;;;;;;;5.33;1.50;;;25.20;49.30;;;;;;5049304;28;20708;-68
2022/12/06 01:43:54;;;;;;;6.63;1.90;;;25.30;49.30;;;;;;5034869;28;20192;-67
2022/12/06 01:46:39;;;;;;;6.07;1.83;;;25.30;49.30;;;;;;5034753;28;20176;-69
2022/12/06 01:49:12;;;;;;;4.80;1.80;;;25.30;48.70;;;;;;5034836;28;20608;-68
2022/12/06 01:52:02;;;;;;;3.67;1.40;;;25.50;49.20;;;;;;5034628;28;20740;-68
2022/12/06 01:54:30;;;;;;;3.53;1.67;;;25.60;46.70;;;;;;5053988;28;20187;-71
2022/12/06 01:56:58;;;;;;;3.47;1.50;;;25.40;48.00;;;;;;5049782;28;20207;-70
2022/12/06 01:59:26;;;;;;;7.43;1.97;;;25.00;50.10;;;;;;5045657;28;20190;-70
2022/12/06 02:01:55;;;;;;;5.67;1.80;;;25.30;51.00;;;;;;5042493;28;20181;-69
2022/12/06 02:04:23;;;;;;;5.13;1.70;;;25.10;50.90;;;;;;5034534;28;20172;-68
2022/12/06 02:06:52;;;;;;;8.60;1.87;;;25.30;49.80;;;;;;5034313;28;20193;-69
2022/12/06 02:09:21;;;;;;;6.60;1.80;;;24.80;51.70;;;;;;5034370;28;20282;-68
2022/12/06 02:11:48;;;;;;;5.00;1.90;;;24.20;53.70;;;;;;5062572;28;20187;-70
2022/12/06 02:14:19;;;;;;;8.10;2.07;;;23.90;55.10;;;;;;5066441;28;20186;-68
2022/12/06 02:17:34;;;;;;;6.00;1.90;;;23.60;56.60;;;;;;5044882;28;20314;-67
2022/12/06 02:20:18;;;;;;;10.30;2.33;;;23.30;57.70;;;;;;5036278;28;20280;-70
2022/12/06 02:23:25;;;;;;;8.20;2.33;;;24.00;56.00;;;;;;5036243;28;20214;-69
2022/12/06 02:26:13;;;;;;;8.70;1.73;;;24.70;53.10;;;;;;5033066;28;20182;-71
2022/12/06 02:28:59;;;;;;;4.70;1.37;;;25.20;50.90;;;;;;5046292;28;20208;-69
2022/12/06 02:32:01;;;;;;;3.00;1.23;;;25.80;48.30;;;;;;5043684;28;20208;-71
2022/12/06 02:34:47;;;;;;;5.17;1.40;;;25.70;48.70;;;;;;5047987;28;20244;-68
2022/12/06 02:37:39;;;;;;;3.30;1.30;;;24.80;50.10;;;;;;5053058;28;20938;-70
2022/12/06 02:40:33;;;;;;;3.60;1.70;;;24.80;49.70;;;;;;5052534;28;20210;-70
2022/12/06 02:43:10;;;;;;;4.03;1.10;;;25.00;48.90;;;;;;5034899;28;20180;-69
2022/12/06 02:45:45;;;;;;;1.17;0.70;;;25.30;46.60;;;;;;5039147;28;20204;-70
2022/12/06 02:48:15;;;;;;;1.80;0.80;;;25.40;43.10;;;;;;5046354;28;20231;-70
2022/12/06 02:50:46;;;;;;;2.80;0.60;;;25.60;45.50;;;;;;5051813;28;20617;-70
2022/12/06 02:53:17;;;;;;;3.27;0.83;;;25.80;41.40;;;;;;5049280;28;20192;-72
2022/12/06 02:55:45;;;;;;;1.73;0.70;;;25.80;43.90;;;;;;5038905;28;20264;-70
2022/12/06 02:58:13;;;;;;;1.33;0.60;;;25.80;44.70;;;;;;5044136;28;20184;-69
2022/12/06 03:00:43;;;;;;;2.23;0.80;;;25.90;43.20;;;;;;5038462;28;20215;-73
2022/12/06 03:03:46;;;;;;;2.60;1.10;;;25.90;43.40;;;;;;5037087;28;20623;-71
2022/12/06 03:06:32;;;;;;;1.87;0.90;;;26.10;42.10;;;;;;5035141;28;20195;-70
2022/12/06 03:09:06;;;;;;;3.40;1.00;;;26.70;43.90;;;;;;5033050;28;20197;-69
2022/12/06 03:12:11;;;;;;;4.00;0.50;;;26.20;41.40;;;;;;5048051;28;20196;-71
2022/12/06 03:14:57;;;;;;;3.83;0.80;;;26.00;40.70;;;;;;5048648;28;20537;-71
2022/12/06 03:17:40;;;;;;;2.70;0.97;;;26.20;41.60;;;;;;5036368;28;20199;-70
2022/12/06 03:20:41;;;;;;;2.50;0.70;;;26.30;42.00;;;;;;5033212;28;20165;-71
2022/12/06 03:23:13;;;;;;;1.60;0.80;;;26.50;43.50;;;;;;5032837;28;20825;-70
2022/12/06 03:25:44;;;;;;;1.47;0.80;;;26.40;42.70;;;;;;5044558;28;20176;-68
2022/12/06 03:28:15;;;;;;;2.50;0.90;;;26.30;43.20;;;;;;5043817;28;20256;-70
2022/12/06 03:30:47;;;;;;;4.70;1.03;;;26.40;42.70;;;;;;5051288;28;20739;-71
2022/12/06 03:33:16;;;;;;;3.03;0.80;;;26.50;42.90;;;;;;5038793;28;20556;-70
2022/12/06 03:35:46;;;;;;;2.13;0.80;;;26.20;42.30;;;;;;5044014;28;20184;-71
2022/12/06 03:38:20;;;;;;;2.60;0.77;;;26.20;43.00;;;;;;5049456;28;20175;-70
2022/12/06 03:40:51;;;;;;;2.20;0.77;;;26.30;41.50;;;;;;5037728;28;20608;-69
2022/12/06 03:43:19;;;;;;;3.53;0.77;;;26.40;43.60;;;;;;5044353;28;20189;-71
2022/12/06 03:45:52;;;;;;;3.17;0.80;;;26.80;44.30;;;;;;5041220;28;20239;-71
2022/12/06 03:48:29;;;;;;;2.00;0.70;;;26.60;44.10;;;;;;5032376;28;20775;-71
2022/12/06 03:51:10;;;;;;;2.97;0.73;;;26.80;42.00;;;;;;5046949;28;20211;-71
2022/12/06 03:53:52;;;;;;;4.33;0.77;;;26.90;42.40;;;;;;5032291;28;20204;-71
2022/12/06 03:56:20;;;;;;;3.27;1.00;;;26.80;40.60;;;;;;5041657;28;20618;-69
2022/12/06 03:58:47;;;;;;;5.50;1.07;;;26.70;41.80;;;;;;5042397;28;20540;-71
2022/12/06 04:01:15;;;;;;;3.70;1.10;;;26.80;42.10;;;;;;5032439;28;20279;-73
2022/12/06 04:03:43;;;;;;;6.83;0.93;;;26.90;42.90;;;;;;5040466;28;20175;-70
2022/12/06 04:06:11;;;;;;;11.53;1.07;;;26.70;44.00;;;;;;5035580;28;20557;-71
2022/12/06 04:08:39;;;;;;;3.40;1.10;;;26.80;43.10;;;;;;5031927;28;20212;-68
2022/12/06 04:11:07;;;;;;;4.07;0.73;;;26.70;43.80;;;;;;5046146;28;20187;-70
2022/12/06 04:13:34;;;;;;;3.57;0.97;;;27.40;41.80;;;;;;5043610;28;20212;-68
2022/12/06 04:16:02;;;;;;;2.73;0.83;;;27.50;41.70;;;;;;5041990;28;20180;-71
2022/12/06 04:18:30;;;;;;;4.40;0.97;;;27.10;42.80;;;;;;5032956;28;20285;-70
2022/12/06 04:23:50;;;;;;;5.43;1.20;;;27.20;40.70;;;;;;5044595;28;20299;-69
2022/12/06 04:26:21;;;;;;;1.73;0.80;;;27.30;41.20;;;;;;5041412;28;20191;-71
2022/12/06 04:39:54;;;;;;;3.07;1.03;;;28.00;39.00;;;;;;5037047;28;20229;-69
2022/12/06 04:45:07;;;;;;;4.57;0.90;;;28.10;39.90;;;;;;5052471;28;20188;-74
2022/12/06 04:47:35;;;;;;;6.60;1.60;;;28.40;39.30;;;;;;5031732;28;20269;-71
2022/12/06 04:50:02;;;;;;;2.03;0.70;;;28.70;39.40;;;;;;5045587;28;20189;-70
2022/12/06 04:52:30;;;;;;;4.07;1.00;;;28.30;38.60;;;;;;5035694;28;20184;-70
2022/12/06 04:54:57;;;;;;;3.53;0.80;;;27.90;39.70;;;;;;5035327;28;20239;-68
2022/12/06 04:57:24;;;;;;;2.83;0.77;;;27.60;39.50;;;;;;5034865;28;20180;-68
2022/12/06 04:59:52;;;;;;;4.60;0.90;;;27.60;38.70;;;;;;5038015;28;20177;-70
2022/12/06 05:02:20;;;;;;;5.47;1.20;;;27.60;39.80;;;;;;5050364;28;20218;-71
2022/12/06 05:04:47;;;;;;;4.40;1.23;;;27.80;40.50;;;;;;5039687;28;20196;-66
2022/12/06 05:07:14;;;;;;;6.00;1.17;;;27.80;40.10;;;;;;5034975;28;20283;-70
2022/12/06 05:09:42;;;;;;;6.17;1.00;;;27.80;39.90;;;;;;5035694;28;20189;-72
2022/12/06 05:12:09;;;;;;;4.67;1.10;;;28.20;39.90;;;;;;5035999;28;20207;-69
2022/12/06 05:14:36;;;;;;;4.73;1.10;;;28.10;40.10;;;;;;5049799;28;20173;-72
2022/12/06 05:17:04;;;;;;;6.53;1.23;;;28.30;38.80;;;;;;5034747;28;20187;-69
2022/12/06 05:19:31;;;;;;;7.73;1.43;;;28.10;39.30;;;;;;5036077;28;20180;-67
2022/12/06 05:21:58;;;;;;;6.63;1.00;;;28.00;40.50;;;;;;5039162;28;20191;-67
2022/12/06 05:24:26;;;;;;;6.27;1.40;;;28.20;40.40;;;;;;5048869;28;20195;-70
2022/12/06 05:26:53;;;;;;;3.03;1.03;;;28.70;38.90;;;;;;5049483;28;20211;-68
2022/12/06 05:29:20;;;;;;;4.20;1.30;;;28.60;39.50;;;;;;5051885;28;20188;-72
2022/12/06 05:31:48;;;;;;;6.13;1.37;;;29.20;39.00;;;;;;5043503;28;20274;-73
2022/12/06 05:34:15;;;;;;;4.03;1.30;;;28.30;39.50;;;;;;5054108;28;20192;-71
2022/12/06 05:36:44;;;;;;;5.03;1.57;;;28.30;40.50;;;;;;5053548;28;20662;-69
2022/12/06 05:39:12;;;;;;;8.87;1.50;;;28.10;41.50;;;;;;5040861;28;20280;-69
2022/12/06 05:41:39;;;;;;;6.13;1.40;;;28.30;41.50;;;;;;5046282;28;20192;-68
2022/12/06 05:44:08;;;;;;;4.75;1.10;;;28.70;40.20;;;;;;5038187;28;20180;-68
2022/12/06 05:46:35;;;;;;;8.70;1.57;;;28.70;40.60;;;;;;5047135;28;20238;-67
2022/12/06 05:49:03;;;;;;;4.67;1.33;;;28.70;40.80;;;;;;5049037;28;20231;-67
2022/12/06 05:51:30;;;;;;;5.13;1.40;;;28.80;40.20;;;;;;5043923;28;20261;-69
2022/12/06 05:54:01;;;;;;;4.97;1.17;;;28.20;41.00;;;;;;5043819;28;20651;-67
2022/12/06 05:56:29;;;;;;;5.47;1.37;;;27.80;42.00;;;;;;5034908;28;20176;-69
2022/12/06 05:58:57;;;;;;;3.70;1.23;;;28.10;42.00;;;;;;5038871;28;20226;-68
2022/12/06 06:01:24;;;;;;;8.30;1.60;;;29.10;39.70;;;;;;5040523;28;20177;-69
2022/12/06 06:03:51;;;;;;;8.40;1.30;;;28.80;41.10;;;;;;5034330;28;20651;-68
2022/12/06 06:06:20;;;;;;;5.63;1.57;;;28.70;40.40;;;;;;5043400;28;20180;-67
2022/12/06 06:08:47;;;;;;;8.23;1.10;;;28.90;40.50;;;;;;5044996;28;20220;-67
2022/12/06 06:11:14;;;;;;;4.30;1.30;;;28.60;40.90;;;;;;5038345;28;20283;-67
2022/12/06 06:13:42;;;;;;;7.63;1.60;;;29.00;39.70;;;;;;5039203;28;20180;-67
2022/12/06 06:16:10;;;;;;;4.03;1.30;;;27.70;42.40;;;;;;5049915;28;20187;-68
2022/12/06 06:18:37;;;;;;;5.17;1.40;;;27.80;42.40;;;;;;5042569;28;20181;-68
2022/12/06 06:21:05;;;;;;;5.00;1.60;;;28.40;41.60;;;;;;5032590;28;20279;-68
2022/12/06 06:23:32;;;;;;;6.07;1.40;;;28.40;41.50;;;;;;5048683;28;20271;-68
2022/12/06 06:25:59;;;;;;;3.53;1.40;;;28.00;42.00;;;;;;5048076;28;20242;-70
2022/12/06 06:28:27;;;;;;;7.73;1.77;;;28.30;41.60;;;;;;5041681;28;20215;-69
2022/12/06 06:30:54;;;;;;;6.57;1.53;;;27.70;42.90;;;;;;5033405;28;20191;-68
2022/12/06 06:33:21;;;;;;;6.60;1.70;;;27.20;44.30;;;;;;5049054;28;20184;-68
2022/12/06 06:35:49;;;;;;;3.20;1.10;;;27.50;43.70;;;;;;5036877;28;20176;-68
2022/12/06 06:38:16;;;;;;;3.57;1.47;;;27.70;43.70;;;;;;5037619;28;20183;-72
2022/12/06 06:40:43;;;;;;;7.73;1.90;;;26.70;45.50;;;;;;5037730;28;20543;-68
2022/12/06 06:43:17;;;;;;;7.50;1.77;;;25.80;48.10;;;;;;5035877;28;20188;-68
2022/12/06 06:45:55;;;;;;;8.13;1.53;;;24.60;51.30;;;;;;5033205;28;20658;-68
2022/12/06 06:48:23;;;;;;;11.93;1.90;;;24.40;52.90;;;;;;5035076;28;20231;-69
2022/12/06 06:50:51;;;;;;;5.80;1.60;;;24.30;52.40;;;;;;5034632;28;20267;-68
2022/12/06 06:53:19;;;;;;;5.13;1.10;;;24.00;52.90;;;;;;5035523;28;20184;-69
2022/12/06 06:55:47;;;;;;;6.03;1.50;;;24.80;49.20;;;;;;5035727;28;20601;-70
2022/12/06 06:58:15;;;;;;;4.80;1.20;;;25.50;47.60;;;;;;5043206;28;20188;-68
2022/12/06 07:00:42;;;;;;;9.93;1.87;;;24.30;50.60;;;;;;5040458;28;20554;-68
2022/12/06 07:03:14;;;;;;;7.83;1.60;;;24.30;52.80;;;;;;5044962;28;20561;-68
2022/12/06 07:05:42;;;;;;;5.40;1.70;;;24.50;51.50;;;;;;5036858;28;20234;-68
2022/12/06 07:08:11;;;;;;;6.70;1.57;;;24.90;51.50;;;;;;5032707;28;20310;-69
2022/12/06 07:10:39;;;;;;;5.97;1.50;;;24.70;51.70;;;;;;5046128;28;20188;-68
2022/12/06 07:13:06;;;;;;;7.17;1.70;;;24.10;51.80;;;;;;5036989;28;20655;-68
2022/12/06 07:15:35;;;;;;;4.67;1.50;;;24.30;52.10;;;;;;5048966;28;20210;-68
2022/12/06 07:18:02;;;;;;;6.70;2.00;;;24.00;52.20;;;;;;5045830;28;20278;-68
2022/12/06 07:20:29;;;;;;;11.03;1.90;;;23.70;53.70;;;;;;5032582;28;20268;-67
2022/12/06 07:22:57;;;;;;;9.83;1.90;;;23.60;54.30;;;;;;5041471;28;20249;-68
2022/12/06 07:25:24;;;;;;;4.40;1.57;;;23.60;53.70;;;;;;5033451;28;20263;-70
2022/12/06 07:27:52;;;;;;;7.47;1.93;;;23.00;56.40;;;;;;5035379;28;20230;-67
2022/12/06 07:30:19;;;;;;;4.40;1.50;;;22.80;57.20;;;;;;5034400;28;20176;-70
2022/12/06 07:32:46;;;;;;;9.77;2.53;;;23.00;57.20;;;;;;5041755;28;20214;-68
2022/12/06 07:35:14;;;;;;;9.80;2.03;;;23.30;56.30;;;;;;5035175;28;20192;-69
2022/12/06 07:37:45;;;;;;;6.20;2.00;;;23.30;56.10;;;;;;5033400;28;20590;-69
2022/12/06 07:40:14;;;;;;;7.83;1.93;;;22.80;57.40;;;;;;5042131;28;20680;-68
2022/12/06 07:45:27;;;;;;;7.03;1.73;;;22.60;56.70;;;;;;5033948;28;20705;-69
2022/12/06 07:47:54;;;;;;;5.43;1.60;;;22.50;57.40;;;;;;5038274;28;20319;-69
2022/12/06 07:50:23;;;;;;;6.33;1.90;;;22.50;57.60;;;;;;5037328;28;20234;-71
2022/12/06 07:52:51;;;;;;;7.77;1.83;;;22.30;57.60;;;;;;5043904;28;20185;-68
2022/12/06 07:55:19;;;;;;;9.20;1.60;;;21.90;58.30;;;;;;5032361;28;20685;-67
2022/12/06 07:57:46;;;;;;;7.50;1.90;;;21.80;59.50;;;;;;5044389;28;20184;-69
2022/12/06 08:00:15;;;;;;;10.50;2.00;;;21.30;60.30;;;;;;5048924;28;20192;-69
2022/12/06 08:02:43;;;;;;;13.60;2.13;;;21.50;61.10;;;;;;5047073;28;20587;-68
2022/12/06 08:05:11;;;;;;;7.07;1.87;;;21.60;61.00;;;;;;5037020;28;20596;-70
2022/12/06 08:07:40;;;;;;;7.53;1.73;;;21.50;62.00;;;;;;5037318;28;20208;-68
2022/12/06 08:10:07;;;;;;;8.97;1.90;;;21.20;63.00;;;;;;5037640;28;20173;-70
2022/12/06 08:12:35;;;;;;;7.40;2.10;;;21.20;62.30;;;;;;5034661;28;20689;-68
2022/12/06 08:15:11;;;;;;;8.33;1.87;;;21.30;61.10;;;;;;5039819;28;20178;-68
2022/12/06 08:17:42;;;;;;;8.70;1.50;;;21.20;61.70;;;;;;5049315;28;20180;-69
2022/12/06 08:20:11;;;;;;;8.50;1.87;;;21.00;63.10;;;;;;5035628;28;20203;-69
2022/12/06 08:22:38;;;;;;;9.27;2.20;;;21.30;62.40;;;;;;5044236;28;20210;-69
2022/12/06 08:25:07;;;;;;;8.30;2.07;;;21.20;62.80;;;;;;5033502;28;20192;-68
2022/12/06 08:27:35;;;;;;;10.00;2.30;;;21.20;63.20;;;;;;5035899;28;20658;-66
2022/12/06 08:30:02;;;;;;;7.70;2.00;;;21.20;62.80;;;;;;5036363;28;20219;-67
2022/12/06 08:32:30;;;;;;;15.47;2.40;;;21.10;63.80;;;;;;5038512;28;20195;-68
2022/12/06 08:34:57;;;;;;;7.83;2.13;;;21.10;64.00;;;;;;5041286;28;20177;-67
2022/12/06 08:37:24;;;;;;;10.80;1.90;;;21.00;63.90;;;;;;5034141;28;20192;-67
2022/12/06 08:39:52;;;;;;;10.00;2.40;;;20.90;64.10;;;;;;5038302;28;20184;-67
2022/12/06 08:42:19;;;;;;;9.83;2.83;;;20.90;64.00;;;;;;5041267;28;20187;-68
2022/12/06 08:44:50;;;;;;;11.87;2.30;;;20.60;65.10;;;;;;5035497;28;20178;-68
2022/12/06 08:47:17;;;;;;;8.53;2.03;;;20.60;63.80;;;;;;5035791;28;20291;-68
2022/12/06 08:49:45;;;;;;;7.63;1.70;;;20.80;63.30;;;;;;5046946;28;20227;-68
2022/12/06 08:52:12;;;;;;;9.83;2.03;;;20.90;62.70;;;;;;5036081;28;20186;-66
2022/12/06 08:54:40;;;;;;;9.97;2.20;;;20.70;63.10;;;;;;5041464;28;20234;-66
2022/12/06 08:57:07;;;;;;;9.00;2.47;;;20.50;64.00;;;;;;5035308;28;20176;-66
2022/12/06 08:59:35;;;;;;;7.67;1.87;;;20.40;64.70;;;;;;5041981;28;20185;-67
2022/12/06 09:02:02;;;;;;;9.73;2.27;;;20.50;65.30;;;;;;5042388;28;20694;-67
2022/12/06 09:04:29;;;;;;;9.37;2.07;;;20.30;65.50;;;;;;5039704;28;20253;-66
2022/12/06 09:06:57;;;;;;;10.67;2.20;;;20.30;66.00;;;;;;5053024;28;20677;-66
2022/12/06 09:09:24;;;;;;;12.47;2.90;;;20.30;65.10;;;;;;5038683;28;20180;-67
2022/12/06 09:11:51;;;;;;;13.33;2.83;;;20.30;65.50;;;;;;5043326;28;20230;-67
2022/12/06 09:14:19;;;;;;;12.87;2.63;;;20.30;65.30;;;;;;5034634;28;20546;-67
2022/12/06 09:16:47;;;;;;;14.73;2.80;;;20.30;65.30;;;;;;5038147;28;20180;-67
2022/12/06 09:19:15;;;;;;;17.20;2.70;;;20.10;65.70;;;;;;5043406;28;20191;-67
2022/12/06 09:21:43;;;;;;;9.77;1.90;;;20.10;66.30;;;;;;5044095;28;20185;-67
2022/12/06 09:24:13;;;;;;;10.37;2.37;;;20.10;66.70;;;;;;5041375;28;20203;-66
2022/12/06 09:26:41;;;;;;;13.47;2.77;;;20.10;66.10;;;;;;5050696;28;20253;-68
2022/12/06 09:29:09;;;;;;;9.80;2.50;;;20.00;66.20;;;;;;5048160;28;20188;-67
2022/12/06 09:31:39;;;;;;;8.17;1.63;;;19.90;66.70;;;;;;5039639;28;20188;-67
2022/12/06 09:34:11;;;;;;;11.67;2.60;;;20.00;67.20;;;;;;5049044;28;20176;-67
2022/12/06 09:36:51;;;;;;;9.67;2.33;;;20.00;67.40;;;;;;5038827;28;20184;-66
2022/12/06 09:39:36;;;;;;;12.07;2.93;;;20.00;67.80;;;;;;5049652;28;20690;-67
2022/12/06 09:42:03;;;;;;;9.90;2.23;;;20.10;67.40;;;;;;5037441;28;20241;-67
2022/12/06 09:44:41;;;;;;;9.27;2.10;;;20.10;67.30;;;;;;5034431;28;20173;-67
2022/12/06 09:47:39;;;;;;;14.73;2.53;;;20.00;67.10;;;;;;5046915;28;20538;-67
2022/12/06 09:50:42;;;;;;;11.53;2.73;;;20.00;67.70;;;;;;5039443;28;20188;-67
2022/12/06 09:53:30;;;;;;;9.23;2.33;;;20.00;67.90;;;;;;5033919;28;20192;-68
2022/12/06 09:56:24;;;;;;;11.87;2.30;;;19.90;67.90;;;;;;5045652;28;20187;-68
2022/12/06 09:59:02;;;;;;;9.10;2.50;;;19.70;67.90;;;;;;5043297;28;20702;-68
2022/12/06 10:02:03;;;;;;;11.27;2.30;;;19.70;68.40;;;;;;5046550;28;20180;-68
2022/12/06 10:04:48;;;;;;;9.30;2.40;;;19.70;68.20;;;;;;5034251;28;20199;-67
2022/12/06 10:07:41;;;;;;;9.70;2.40;;;19.60;68.30;;;;;;5033852;28;20215;-67
2022/12/06 10:10:38;;;;;;;7.10;2.37;;;19.70;68.60;;;;;;5042950;28;20184;-69
2022/12/06 10:13:26;;;;;;;10.20;2.50;;;19.60;68.50;;;;;;5032577;28;20531;-67
2022/12/06 10:16:15;;;;;;;12.57;2.43;;;19.60;69.30;;;;;;5039532;28;20180;-68
2022/12/06 10:18:48;;;;;;;8.47;2.30;;;19.70;68.70;;;;;;5047789;28;20311;-70
2022/12/06 10:21:23;;;;;;;13.03;2.73;;;19.60;68.70;;;;;;5035055;28;20185;-70
2022/12/06 10:24:06;;;;;;;12.63;3.23;;;19.50;69.00;;;;;;5036116;28;20184;-69
2022/12/06 10:26:43;;;;;;;8.90;2.33;;;19.60;68.40;;;;;;5045416;28;20219;-69
2022/12/06 10:29:20;;;;;;;7.47;2.20;;;19.50;68.70;;;;;;5035910;28;20208;-68
2022/12/06 10:32:10;;;;;;;8.73;2.77;;;19.40;68.80;;;;;;5048679;28;20183;-68
2022/12/06 10:35:00;;;;;;;12.90;3.23;;;19.40;68.90;;;;;;5044827;28;20229;-68
2022/12/06 10:37:50;;;;;;;7.40;2.43;;;19.40;68.40;;;;;;5036548;28;20194;-68
2022/12/06 10:40:17;;;;;;;16.00;2.80;;;19.40;68.60;;;;;;5034151;28;20582;-68
2022/12/06 10:43:09;;;;;;;11.23;2.43;;;19.30;68.90;;;;;;5033750;28;20180;-68
2022/12/06 10:49:12;;;;;;;11.70;2.30;;;19.30;69.30;;;;;;5027903;28;20255;-68
2022/12/06 10:52:08;;;;;;;14.67;2.43;;;19.40;69.40;;;;;;5035901;28;20205;-68
2022/12/06 10:54:56;;;;;;;11.70;2.60;;;19.50;69.30;;;;;;5033397;28;20275;-68
2022/12/06 10:57:44;;;;;;;12.37;2.53;;;19.40;69.30;;;;;;5036653;28;20201;-68
2022/12/06 11:00:23;;;;;;;11.07;2.20;;;19.30;69.90;;;;;;5043179;28;20184;-68
2022/12/06 11:03:26;;;;;;;13.97;2.83;;;19.40;70.30;;;;;;5044696;28;20541;-68
2022/12/06 11:06:18;;;;;;;9.17;2.50;;;19.40;70.10;;;;;;5033143;28;20207;-68
2022/12/06 11:08:59;;;;;;;13.93;2.33;;;19.30;70.30;;;;;;5045831;28;20697;-68
2022/12/06 11:11:33;;;;;;;12.63;2.47;;;19.30;70.10;;;;;;5034517;28;20271;-68
2022/12/06 11:14:10;;;;;;;9.97;2.00;;;19.30;70.50;;;;;;5032942;28;20180;-68
2022/12/06 11:16:45;;;;;;;14.90;3.13;;;19.30;70.90;;;;;;5041445;28;20173;-67
2022/12/06 11:19:34;;;;;;;14.33;2.60;;;19.30;70.50;;;;;;5036290;28;20211;-67
2022/12/06 11:22:27;;;;;;;12.47;2.17;;;19.40;70.90;;;;;;5047858;28;20192;-68
2022/12/06 11:25:17;;;;;;;11.87;2.63;;;19.40;70.60;;;;;;5032794;28;20203;-69
2022/12/06 11:28:03;;;;;;;12.77;2.63;;;19.40;70.60;;;;;;5041798;28;20269;-68
2022/12/06 11:30:32;;;;;;;22.90;3.67;;;19.40;70.20;;;;;;5032826;28;20562;-68
2022/12/06 11:33:02;;;;;;;10.57;2.47;;;19.40;70.20;;;;;;5036914;28;20183;-68
2022/12/06 11:35:29;;;;;;;11.83;2.63;;;19.50;70.60;;;;;;5035153;28;20881;-68
2022/12/06 11:38:03;;;;;;;9.43;2.20;;;19.50;70.00;;;;;;5033362;28;20646;-68
2022/12/06 11:40:34;;;;;;;13.47;2.90;;;19.50;70.40;;;;;;5039757;28;20555;-68
2022/12/06 11:43:07;;;;;;;17.33;2.90;;;19.60;70.70;;;;;;5034623;28;20263;-68
2022/12/06 11:45:37;;;;;;;15.77;2.70;;;19.80;70.40;;;;;;5032822;28;20176;-68
2022/12/06 11:48:17;;;;;;;11.70;2.83;;;19.70;70.10;;;;;;5032709;28;20690;-67
2022/12/06 11:50:47;;;;;;;11.47;2.40;;;19.70;69.90;;;;;;5032715;28;20177;-68
2022/12/06 11:53:19;;;;;;;10.53;2.17;;;19.70;69.90;;;;;;5031965;28;20177;-67
2022/12/06 11:55:50;;;;;;;10.67;2.40;;;19.70;69.60;;;;;;5033085;28;20712;-68
2022/12/06 11:58:36;;;;;;;11.53;2.57;;;19.70;69.40;;;;;;5035870;28;20523;-68
2022/12/06 12:01:10;;;;;;;9.50;2.00;;;19.80;69.20;;;;;;5032305;28;20539;-68
2022/12/06 12:03:40;;;;;;;9.60;2.37;;;19.80;69.90;;;;;;5032397;28;20315;-68
2022/12/06 12:06:15;;;;;;;8.27;1.97;;;19.70;68.80;;;;;;5032159;28;20222;-68
2022/12/06 12:09:01;;;;;;;15.13;2.43;;;19.60;68.70;;;;;;5032723;28;20670;-68
2022/12/06 12:11:39;;;;;;;10.60;2.13;;;19.60;68.70;;;;;;5034564;28;20267;-69
2022/12/06 12:14:18;;;;;;;10.40;2.20;;;19.60;68.50;;;;;;5047677;28;20185;-68
2022/12/06 12:16:53;;;;;;;13.23;2.53;;;19.70;68.80;;;;;;5037384;28;20187;-68
2022/12/06 12:19:48;;;;;;;9.63;2.00;;;19.70;68.40;;;;;;5042338;28;20184;-68
2022/12/06 12:22:28;;;;;;;13.03;2.13;;;19.80;68.90;;;;;;5036508;28;20185;-68
2022/12/06 12:24:58;;;;;;;11.73;2.23;;;19.80;68.70;;;;;;5040274;28;20195;-68
2022/12/06 12:27:42;;;;;;;10.83;2.30;;;19.80;69.00;;;;;;5040884;28;20235;-68
2022/12/06 12:30:26;;;;;;;10.13;2.20;;;19.70;68.40;;;;;;5042403;28;20193;-68
2022/12/06 12:33:06;;;;;;;10.53;2.40;;;19.70;69.00;;;;;;5040029;28;20200;-68
2022/12/06 12:35:45;;;;;;;11.60;2.30;;;19.60;69.30;;;;;;5036267;28;20490;-69
2022/12/06 12:38:27;;;;;;;9.03;2.30;;;19.50;69.30;;;;;;5032075;28;20180;-68
2022/12/06 12:40:59;;;;;;;8.70;2.30;;;19.50;69.70;;;;;;5031392;28;20180;-68
2022/12/06 12:43:32;;;;;;;7.37;1.87;;;19.30;70.10;;;;;;5032585;28;20199;-68
2022/12/06 12:46:12;;;;;;;15.17;2.20;;;19.30;70.10;;;;;;5031977;28;20574;-68
2022/12/06 12:48:41;;;;;;;10.77;2.10;;;19.30;70.40;;;;;;5032469;28;20235;-69
2022/12/06 12:51:34;;;;;;;8.10;2.13;;;19.20;70.90;;;;;;5033681;28;20169;-70
2022/12/06 12:54:20;;;;;;;13.27;2.17;;;19.20;71.40;;;;;;5031630;28;20541;-69
2022/12/06 12:56:48;;;;;;;9.33;1.83;;;19.20;70.90;;;;;;5032453;28;20195;-69
2022/12/06 12:59:18;;;;;;;9.67;2.00;;;19.20;71.60;;;;;;5041240;28;20545;-69
2022/12/06 13:01:52;;;;;;;8.37;2.83;;;19.20;71.50;;;;;;5038214;28;20188;-69
2022/12/06 13:04:47;;;;;;;9.67;2.50;;;19.10;71.80;;;;;;5031938;28;20176;-70
2022/12/06 13:07:26;;;;;;;15.67;2.67;;;19.00;72.30;;;;;;5034672;28;20212;-70
2022/12/06 13:10:08;;;;;;;9.30;2.37;;;19.00;72.20;;;;;;5031708;28;20658;-69
2022/12/06 13:13:04;;;;;;;17.93;2.63;;;19.00;72.40;;;;;;5046138;28;20180;-69
2022/12/06 13:15:32;;;;;;;14.50;2.60;;;19.00;72.60;;;;;;5034692;28;20655;-68
2022/12/06 13:18:12;;;;;;;15.53;3.10;;;18.90;72.10;;;;;;5045403;28;20249;-69
2022/12/06 13:20:40;;;;;;;17.83;2.70;;;18.80;73.00;;;;;;5035122;28;20184;-70
2022/12/06 13:23:24;;;;;;;12.50;2.37;;;18.90;72.60;;;;;;5052650;28;20176;-68
2022/12/06 13:26:31;;;;;;;10.53;2.20;;;18.90;72.60;;;;;;5048978;28;20241;-70
2022/12/06 13:29:22;;;;;;;12.53;2.30;;;18.90;72.80;;;;;;5037376;28;20227;-70
2022/12/06 13:31:52;;;;;;;12.57;3.10;;;19.00;73.10;;;;;;5035726;28;20230;-69
2022/12/06 13:34:37;;;;;;;10.20;2.33;;;18.90;72.80;;;;;;5049228;28;20643;-69
2022/12/06 13:37:24;;;;;;;9.07;2.50;;;19.00;72.80;;;;;;5038431;28;20177;-69
2022/12/06 13:39:52;;;;;;;7.87;2.33;;;19.00;73.00;;;;;;5045895;28;20226;-69